Time;durP1;ratioP1;P1;durP2;ratioP2;P2;SDS_P1;SDS_P2;PMS_P1;PMS_P2;Temp;Humidity;BMP_temperature;BMP_pressure;BME280_temperature;BME280_humidity;BME280_pressure;Samples;Min_cycle;Max_cycle;Signal;HPM_P1;HPM_P2
2022/07/02 00:00:22;;;;;;;0.10;0.10;;;13.60;99.90;;;;;;5039312;28;20482;-83
2022/07/02 00:02:51;;;;;;;0.20;0.10;;;13.60;99.90;;;;;;5055058;28;20037;-82
2022/07/02 00:05:24;;;;;;;0.10;0.10;;;13.60;99.90;;;;;;5071575;28;20463;-83
2022/07/02 00:07:51;;;;;;;0.20;0.20;;;13.60;99.90;;;;;;5072108;28;19925;-83
2022/07/02 00:10:19;;;;;;;0.10;0.10;;;13.60;99.90;;;;;;5038918;28;20037;-83
2022/07/02 00:12:47;;;;;;;0.10;0.10;;;13.60;99.90;;;;;;5055294;28;20065;-83
2022/07/02 00:15:15;;;;;;;0.10;0.10;;;13.60;99.90;;;;;;5055099;28;20079;-83
2022/07/02 00:17:42;;;;;;;0.20;0.20;;;13.50;99.90;;;;;;5071707;28;20043;-83
2022/07/02 00:20:09;;;;;;;0.28;0.10;;;13.50;99.90;;;;;;5070925;28;20032;-83
2022/07/02 00:22:37;;;;;;;0.30;0.30;;;13.60;99.90;;;;;;5071237;28;20489;-83
2022/07/02 00:25:04;;;;;;;0.17;0.17;;;13.60;99.90;;;;;;5071500;28;20076;-83
2022/07/02 00:27:35;;;;;;;0.28;0.20;;;13.50;99.90;;;;;;5054579;28;20532;-83
2022/07/02 00:30:03;;;;;;;0.35;0.30;;;13.50;99.90;;;;;;5055350;28;20036;-83
2022/07/02 00:32:32;;;;;;;0.25;0.20;;;13.50;99.90;;;;;;5055026;28;20079;-83
2022/07/02 00:35:05;;;;;;;0.08;0.08;;;13.50;99.90;;;;;;5054936;28;20033;-83
2022/07/02 00:37:32;;;;;;;0.10;0.10;;;13.50;99.90;;;;;;5070927;28;20037;-83
2022/07/02 00:39:59;;;;;;;0.10;0.10;;;13.40;99.90;;;;;;5038259;28;20493;-83
2022/07/02 00:42:26;;;;;;;0.30;0.30;;;13.50;99.90;;;;;;5038130;28;20052;-83
2022/07/02 00:44:55;;;;;;;0.08;0.08;;;13.40;99.90;;;;;;5070831;28;20135;-83
2022/07/02 00:47:24;;;;;;;0.30;0.10;;;13.40;99.90;;;;;;5070661;28;20127;-83
2022/07/02 00:49:51;;;;;;;0.10;0.10;;;13.40;99.90;;;;;;5070784;28;20075;-83
2022/07/02 00:52:17;;;;;;;0.10;0.10;;;13.40;99.90;;;;;;5037712;28;20040;-83
2022/07/02 00:54:44;;;;;;;0.10;0.10;;;13.30;99.90;;;;;;5070353;28;20094;-83
2022/07/02 00:57:11;;;;;;;0.10;0.10;;;13.30;99.90;;;;;;5054262;28;20033;-83
2022/07/02 00:59:41;;;;;;;0.10;0.10;;;13.30;99.90;;;;;;5053958;28;20045;-82
2022/07/02 01:02:08;;;;;;;0.30;0.20;;;13.30;99.90;;;;;;5054174;28;20051;-83
2022/07/02 01:04:35;;;;;;;0.05;0.00;;;13.20;99.90;;;;;;5054182;28;20076;-83
2022/07/02 01:07:07;;;;;;;0.13;0.13;;;13.20;99.90;;;;;;5054013;28;20513;-83
2022/07/02 01:12:26;;;;;;;0.20;0.20;;;13.20;99.90;;;;;;5087162;28;20041;-83
2022/07/02 01:14:54;;;;;;;0.40;0.22;;;13.10;99.90;;;;;;5087010;28;20061;-83
2022/07/02 01:17:21;;;;;;;0.22;0.10;;;13.20;99.90;;;;;;5054185;28;20096;-83
2022/07/02 01:19:48;;;;;;;0.20;0.10;;;13.10;99.90;;;;;;5070248;28;20045;-83
2022/07/02 01:22:23;;;;;;;0.20;0.20;;;13.10;99.90;;;;;;5070306;28;20130;-83
2022/07/02 01:24:52;;;;;;;0.20;0.20;;;13.10;99.90;;;;;;5069967;28;20060;-83
2022/07/02 01:27:20;;;;;;;0.05;0.05;;;13.00;99.90;;;;;;5072375;28;20044;-82
2022/07/02 01:29:48;;;;;;;0.20;0.20;;;13.00;99.90;;;;;;5057201;28;20044;-83
2022/07/02 01:32:15;;;;;;;0.38;0.20;;;13.00;99.90;;;;;;5072493;28;20043;-83
2022/07/02 01:34:44;;;;;;;0.10;0.10;;;13.00;99.90;;;;;;5072771;28;20037;-83
2022/07/02 01:37:14;;;;;;;0.10;0.10;;;13.00;99.90;;;;;;5073285;28;20133;-83
2022/07/02 01:39:42;;;;;;;0.22;0.13;;;13.00;99.90;;;;;;5089865;28;20047;-83
2022/07/02 01:42:10;;;;;;;0.20;0.20;;;13.00;99.90;;;;;;5073335;28;20152;-83
2022/07/02 01:44:37;;;;;;;0.43;0.30;;;12.90;99.90;;;;;;5057108;28;20041;-83
2022/07/02 01:47:07;;;;;;;0.10;0.10;;;13.00;99.90;;;;;;5040370;28;20527;-83
2022/07/02 01:49:34;;;;;;;0.40;0.40;;;13.00;99.90;;;;;;5073117;28;20508;-83
2022/07/02 01:52:02;;;;;;;0.10;0.10;;;12.90;99.90;;;;;;5089567;28;20041;-83
2022/07/02 01:54:29;;;;;;;0.10;0.10;;;12.90;99.90;;;;;;5073674;28;20036;-83
2022/07/02 01:56:56;;;;;;;0.20;0.20;;;12.90;99.90;;;;;;5040536;28;20220;-84
2022/07/02 01:59:22;;;;;;;0.40;0.20;;;12.90;99.90;;;;;;5057065;28;20385;-83
2022/07/02 02:01:49;;;;;;;0.20;0.20;;;12.90;99.90;;;;;;5056535;28;20382;-83
2022/07/02 02:04:16;;;;;;;0.20;0.20;;;12.90;99.90;;;;;;5040330;28;20046;-83
2022/07/02 02:06:43;;;;;;;0.20;0.20;;;12.80;99.90;;;;;;5056367;28;20041;-83
2022/07/02 02:09:10;;;;;;;0.00;0.00;;;12.80;99.90;;;;;;5072538;28;20497;-83
2022/07/02 02:11:37;;;;;;;0.20;0.20;;;12.80;99.90;;;;;;5040357;28;20043;-83
2022/07/02 02:14:03;;;;;;;0.35;0.25;;;12.80;99.90;;;;;;5089315;28;20040;-83
2022/07/02 02:16:31;;;;;;;0.10;0.10;;;12.80;99.90;;;;;;5056598;28;20051;-83
2022/07/02 02:18:59;;;;;;;0.10;0.10;;;12.70;99.90;;;;;;5073140;28;20040;-83
2022/07/02 02:21:27;;;;;;;0.20;0.20;;;12.60;99.90;;;;;;5056798;28;20127;-83
2022/07/02 02:23:54;;;;;;;0.20;0.20;;;12.60;99.90;;;;;;5040415;28;20475;-82
2022/07/02 02:26:22;;;;;;;0.40;0.20;;;12.60;99.90;;;;;;5056366;28;20080;-83
2022/07/02 02:28:48;;;;;;;0.20;0.20;;;12.60;99.90;;;;;;5089027;28;20052;-83
2022/07/02 02:31:15;;;;;;;1.33;0.28;;;12.60;99.90;;;;;;5056771;28;20048;-83
2022/07/02 02:33:42;;;;;;;0.17;0.17;;;12.50;99.90;;;;;;5072890;28;20036;-83
2022/07/02 02:36:09;;;;;;;0.10;0.10;;;12.50;99.90;;;;;;5089056;28;20131;-82
2022/07/02 02:38:38;;;;;;;0.43;0.30;;;12.60;99.90;;;;;;5039854;28;20493;-83
2022/07/02 02:41:07;;;;;;;0.28;0.22;;;12.50;99.90;;;;;;5056484;28;20045;-83
2022/07/02 02:43:35;;;;;;;0.10;0.10;;;12.60;99.90;;;;;;5074383;28;20044;-82
2022/07/02 02:46:02;;;;;;;0.20;0.20;;;12.50;99.90;;;;;;5043873;28;20032;-82
2022/07/02 02:48:29;;;;;;;0.32;0.30;;;12.50;99.90;;;;;;5076626;28;20493;-83
2022/07/02 02:50:56;;;;;;;0.30;0.30;;;12.50;99.90;;;;;;5076645;28;20050;-83
2022/07/02 02:53:24;;;;;;;0.05;0.05;;;12.50;99.90;;;;;;5059809;28;20503;-82
2022/07/02 02:55:51;;;;;;;0.00;0.00;;;12.50;99.90;;;;;;5059709;28;20067;-82
2022/07/02 02:58:18;;;;;;;0.10;0.10;;;12.50;99.90;;;;;;5076303;28;20055;-82
2022/07/02 03:00:45;;;;;;;0.45;0.20;;;12.40;99.90;;;;;;5059756;28;20401;-83
2022/07/02 03:03:11;;;;;;;0.15;0.15;;;12.40;99.90;;;;;;5075884;28;20056;-82
2022/07/02 03:05:38;;;;;;;0.13;0.13;;;12.40;99.90;;;;;;5059706;28;20036;-82
2022/07/02 03:08:05;;;;;;;0.20;0.20;;;12.40;99.90;;;;;;5092679;28;20040;-82
2022/07/02 03:10:32;;;;;;;0.20;0.17;;;12.40;99.90;;;;;;5059638;28;20040;-82
2022/07/02 03:12:58;;;;;;;0.20;0.20;;;12.40;99.90;;;;;;5076043;28;20486;-81
2022/07/02 03:15:26;;;;;;;0.10;0.10;;;12.30;99.90;;;;;;5059846;28;20431;-82
2022/07/02 03:17:53;;;;;;;0.10;0.10;;;12.30;99.90;;;;;;5059648;28;20040;-83
2022/07/02 03:20:20;;;;;;;0.10;0.10;;;12.30;99.90;;;;;;5075793;28;20040;-82
2022/07/02 03:22:46;;;;;;;0.47;0.30;;;12.30;99.90;;;;;;5075906;28;20036;-82
2022/07/02 03:25:13;;;;;;;0.20;0.20;;;12.30;99.90;;;;;;5043102;28;20048;-82
2022/07/02 03:27:41;;;;;;;0.10;0.10;;;12.30;99.90;;;;;;5092088;28;20053;-82
2022/07/02 03:30:08;;;;;;;0.10;0.10;;;12.30;99.90;;;;;;5077175;28;20043;-83
2022/07/02 03:32:35;;;;;;;0.17;0.17;;;12.30;99.90;;;;;;5089442;28;20104;-82
2022/07/02 03:35:01;;;;;;;0.10;0.10;;;12.30;99.90;;;;;;5078626;28;20501;-83
2022/07/02 03:37:28;;;;;;;0.13;0.13;;;12.40;99.90;;;;;;5095745;28;20035;-82
2022/07/02 03:39:55;;;;;;;0.35;0.30;;;12.40;99.90;;;;;;5112574;28;20082;-83
2022/07/02 03:42:23;;;;;;;0.38;0.25;;;12.40;99.90;;;;;;5096006;28;20036;-82
2022/07/02 03:44:50;;;;;;;0.28;0.20;;;12.40;99.90;;;;;;5095638;28;20042;-83
2022/07/02 03:47:17;;;;;;;0.20;0.17;;;12.40;99.90;;;;;;5095103;28;20559;-83
2022/07/02 03:49:43;;;;;;;0.10;0.10;;;12.40;99.90;;;;;;5095556;28;20074;-82
2022/07/02 03:52:10;;;;;;;0.45;0.30;;;12.50;99.90;;;;;;5104493;28;20401;-83
2022/07/02 03:54:37;;;;;;;0.20;0.20;;;12.50;99.90;;;;;;5077611;28;20033;-82
2022/07/02 03:57:04;;;;;;;0.13;0.10;;;12.60;99.90;;;;;;5095520;28;20040;-82
2022/07/02 03:59:30;;;;;;;0.15;0.15;;;12.60;99.90;;;;;;5112083;28;20565;-83
2022/07/02 04:01:57;;;;;;;0.30;0.20;;;12.70;99.90;;;;;;5094739;28;20079;-83
2022/07/02 04:04:24;;;;;;;0.28;0.20;;;12.70;99.90;;;;;;5091589;28;20044;-82
2022/07/02 04:06:51;;;;;;;0.30;0.25;;;12.70;99.90;;;;;;5104796;28;20041;-83
2022/07/02 04:09:17;;;;;;;0.20;0.20;;;12.80;99.90;;;;;;5071200;28;20037;-82
2022/07/02 04:11:44;;;;;;;0.15;0.15;;;12.70;99.90;;;;;;5071574;28;20051;-83
2022/07/02 04:14:11;;;;;;;0.20;0.20;;;12.80;99.90;;;;;;5071389;28;20037;-82
2022/07/02 04:16:38;;;;;;;0.30;0.30;;;12.80;99.90;;;;;;5071462;28;20083;-82
2022/07/02 04:19:04;;;;;;;0.10;0.10;;;12.80;99.90;;;;;;5054923;28;20048;-82
2022/07/02 04:21:31;;;;;;;0.10;0.10;;;12.80;99.90;;;;;;5071258;28;20508;-82
2022/07/02 04:23:58;;;;;;;0.20;0.20;;;12.90;99.90;;;;;;5071310;28;20131;-81
2022/07/02 04:26:25;;;;;;;0.10;0.10;;;12.90;99.90;;;;;;5071574;28;20537;-82
2022/07/02 04:28:51;;;;;;;0.45;0.30;;;12.90;99.90;;;;;;5070965;28;20414;-82
2022/07/02 04:31:18;;;;;;;0.20;0.20;;;13.00;99.90;;;;;;5070797;28;20128;-82
2022/07/02 04:33:45;;;;;;;0.20;0.20;;;13.00;99.90;;;;;;5070992;28;20037;-82
2022/07/02 04:36:12;;;;;;;0.10;0.10;;;13.00;99.90;;;;;;5071288;28;20041;-82
2022/07/02 04:38:39;;;;;;;0.38;0.20;;;13.00;99.90;;;;;;5087536;28;20676;-82
2022/07/02 04:41:05;;;;;;;0.03;0.03;;;13.00;99.90;;;;;;5094140;28;20048;-82
2022/07/02 04:43:32;;;;;;;0.38;0.28;;;13.10;99.90;;;;;;5041521;28;20044;-82
2022/07/02 04:45:58;;;;;;;0.45;0.35;;;13.10;99.90;;;;;;5041120;28;20048;-82
2022/07/02 04:48:25;;;;;;;0.13;0.10;;;13.20;99.90;;;;;;5037743;28;20059;-82
2022/07/02 04:50:52;;;;;;;0.17;0.17;;;13.20;99.90;;;;;;5071092;28;20048;-82
2022/07/02 04:53:18;;;;;;;0.10;0.10;;;13.20;99.90;;;;;;5087146;28;20773;-82
2022/07/02 04:55:45;;;;;;;0.10;0.10;;;13.30;99.90;;;;;;5103935;28;20037;-82
2022/07/02 04:58:12;;;;;;;0.10;0.10;;;13.30;99.90;;;;;;5070566;28;20037;-82
2022/07/02 05:00:38;;;;;;;0.30;0.30;;;13.40;99.90;;;;;;5093891;28;20032;-82
2022/07/02 05:03:05;;;;;;;0.50;0.40;;;13.40;99.90;;;;;;5041050;28;20032;-82
2022/07/02 05:05:32;;;;;;;0.50;0.30;;;13.40;99.90;;;;;;5040874;28;20033;-82
2022/07/02 05:07:58;;;;;;;0.63;0.35;;;13.50;99.90;;;;;;5074115;28;20041;-82
2022/07/02 05:10:25;;;;;;;0.20;0.20;;;13.50;99.90;;;;;;5057279;28;20040;-82
2022/07/02 05:12:52;;;;;;;0.45;0.40;;;13.60;99.90;;;;;;5073940;28;20044;-82
2022/07/02 05:15:19;;;;;;;0.20;0.20;;;13.60;99.90;;;;;;5073995;28;20110;-82
2022/07/02 05:17:45;;;;;;;0.32;0.20;;;13.60;99.90;;;;;;5057040;28;20051;-83
2022/07/02 05:20:12;;;;;;;0.28;0.28;;;13.60;99.90;;;;;;5056940;28;20093;-83
2022/07/02 05:22:39;;;;;;;0.38;0.20;;;13.70;99.90;;;;;;5057225;28;20063;-82
2022/07/02 05:25:06;;;;;;;0.38;0.32;;;13.70;99.90;;;;;;5056814;28;20051;-82
2022/07/02 05:27:32;;;;;;;0.30;0.30;;;13.80;99.90;;;;;;5056839;28;20083;-82
2022/07/02 05:29:59;;;;;;;0.57;0.30;;;13.80;99.90;;;;;;5057241;28;20445;-82
2022/07/02 05:32:26;;;;;;;0.20;0.20;;;13.80;99.90;;;;;;5040513;28;20127;-82
2022/07/02 05:34:52;;;;;;;0.32;0.30;;;13.90;99.90;;;;;;5040808;28;20126;-82
2022/07/02 05:37:19;;;;;;;0.35;0.30;;;13.90;99.90;;;;;;5089716;28;20041;-82
2022/07/02 05:39:46;;;;;;;0.40;0.30;;;14.00;99.90;;;;;;5073281;28;20048;-82
2022/07/02 05:42:12;;;;;;;0.20;0.20;;;14.10;99.90;;;;;;5056849;28;20040;-82
2022/07/02 05:44:39;;;;;;;0.57;0.40;;;14.10;99.90;;;;;;5056842;28;20040;-82
2022/07/02 05:47:06;;;;;;;0.20;0.20;;;14.20;99.90;;;;;;5040420;28;20040;-82
2022/07/02 05:49:32;;;;;;;0.20;0.20;;;14.20;99.90;;;;;;5040359;28;20405;-82
2022/07/02 05:51:59;;;;;;;0.73;0.20;;;14.30;99.90;;;;;;5073360;28;20036;-83
2022/07/02 05:54:26;;;;;;;0.68;0.30;;;14.40;99.90;;;;;;5040287;28;20454;-82
2022/07/02 05:56:53;;;;;;;0.52;0.30;;;14.40;99.90;;;;;;5040672;28;20040;-83
2022/07/02 05:59:21;;;;;;;0.47;0.40;;;14.50;99.90;;;;;;5072985;28;20394;-83
2022/07/02 06:01:48;;;;;;;0.65;0.35;;;14.50;99.90;;;;;;5041378;28;20123;-83
2022/07/02 06:04:15;;;;;;;0.30;0.30;;;14.60;99.90;;;;;;5072767;28;20109;-83
2022/07/02 06:09:27;;;;;;;0.20;0.20;;;14.80;99.90;;;;;;5061692;28;20098;-83
2022/07/02 06:11:53;;;;;;;0.73;0.22;;;14.90;99.90;;;;;;5073315;28;20420;-83
2022/07/02 06:14:20;;;;;;;0.30;0.30;;;14.90;99.90;;;;;;5056752;28;20399;-83
2022/07/02 06:16:47;;;;;;;0.45;0.30;;;15.00;99.90;;;;;;5056858;28;20033;-83
2022/07/02 06:19:14;;;;;;;1.00;0.30;;;15.00;99.90;;;;;;5059162;28;20500;-83
2022/07/02 06:21:40;;;;;;;0.10;0.10;;;15.10;99.90;;;;;;5044204;28;20040;-83
2022/07/02 06:24:10;;;;;;;0.28;0.15;;;15.20;99.90;;;;;;5060574;28;20032;-84
2022/07/02 06:26:38;;;;;;;0.40;0.30;;;15.20;99.90;;;;;;5076575;28;20044;-83
2022/07/02 06:29:05;;;;;;;0.20;0.20;;;15.40;99.90;;;;;;5060390;28;20084;-83
2022/07/02 06:31:32;;;;;;;0.10;0.10;;;15.40;99.90;;;;;;5060512;28;20037;-83
2022/07/02 06:33:58;;;;;;;0.20;0.20;;;15.60;99.90;;;;;;5060209;28;20042;-84
2022/07/02 06:36:25;;;;;;;0.30;0.20;;;15.60;99.90;;;;;;5093185;28;20044;-84
2022/07/02 06:38:52;;;;;;;0.32;0.20;;;15.80;99.90;;;;;;5060204;28;20044;-83
2022/07/02 06:44:06;;;;;;;0.17;0.15;;;16.00;99.90;;;;;;5090827;28;20055;-83
2022/07/02 06:46:33;;;;;;;0.35;0.20;;;16.10;99.90;;;;;;5096364;28;20040;-83
2022/07/02 06:49:00;;;;;;;0.20;0.20;;;16.20;99.90;;;;;;5077540;28;20124;-83
2022/07/02 06:51:27;;;;;;;0.10;0.10;;;16.30;99.90;;;;;;5059677;28;20036;-83
2022/07/02 06:54:00;;;;;;;0.20;0.17;;;16.40;99.90;;;;;;5060113;28;20169;-83
2022/07/02 06:56:36;;;;;;;0.10;0.08;;;16.40;99.90;;;;;;5093025;28;20041;-83
2022/07/02 06:59:03;;;;;;;0.10;0.10;;;16.40;99.90;;;;;;5077071;28;20033;-83
2022/07/02 07:01:30;;;;;;;0.20;0.20;;;16.50;99.90;;;;;;5092797;28;20118;-83
2022/07/02 07:03:57;;;;;;;0.00;0.00;;;16.60;99.90;;;;;;5112999;28;20435;-83
2022/07/02 07:06:37;;;;;;;0.22;0.20;;;16.60;99.90;;;;;;5062970;28;20036;-83
2022/07/02 07:09:04;;;;;;;0.10;0.10;;;16.70;99.90;;;;;;5087408;28;20033;-83
2022/07/02 07:11:31;;;;;;;0.00;0.00;;;16.70;99.90;;;;;;5076500;28;20094;-83
2022/07/02 07:13:57;;;;;;;0.10;0.10;;;16.90;99.90;;;;;;5112200;28;20105;-84
2022/07/02 07:16:24;;;;;;;0.25;0.20;;;16.90;99.90;;;;;;5095647;28;20032;-83
2022/07/02 07:21:20;;;;;;;0.20;0.20;;;17.20;99.90;;;;;;5060145;28;20059;-83
2022/07/02 07:23:46;;;;;;;0.05;0.05;;;17.30;99.90;;;;;;5059030;28;20119;-83
2022/07/02 07:26:13;;;;;;;0.10;0.10;;;17.30;99.90;;;;;;5043025;28;20048;-82
2022/07/02 07:28:40;;;;;;;0.10;0.10;;;17.30;99.90;;;;;;5068404;28;20060;-85
2022/07/02 07:31:06;;;;;;;0.10;0.10;;;17.40;99.90;;;;;;5095873;28;20044;-84
2022/07/02 07:33:34;;;;;;;0.20;0.20;;;17.50;99.90;;;;;;5099427;28;20117;-83
2022/07/02 07:36:01;;;;;;;0.22;0.22;;;17.50;99.90;;;;;;5108158;28;20048;-82
2022/07/02 07:38:28;;;;;;;0.10;0.10;;;17.60;99.90;;;;;;5058430;28;20036;-82
2022/07/02 07:40:55;;;;;;;0.00;0.00;;;17.50;99.90;;;;;;5078911;28;20067;-83
2022/07/02 07:43:22;;;;;;;0.00;0.00;;;17.60;99.90;;;;;;5079399;28;20048;-83
2022/07/02 07:45:48;;;;;;;0.25;0.20;;;17.80;99.90;;;;;;5078497;28;20090;-83
2022/07/02 07:48:15;;;;;;;0.15;0.15;;;17.80;99.90;;;;;;5112164;28;20032;-83
2022/07/02 07:50:42;;;;;;;1.10;0.32;;;17.90;99.90;;;;;;5090866;28;20044;-83
2022/07/02 07:53:08;;;;;;;0.05;0.05;;;18.00;99.90;;;;;;5095602;28;20092;-83
2022/07/02 07:55:35;;;;;;;0.10;0.10;;;18.00;99.90;;;;;;5098853;28;20040;-83
2022/07/02 07:58:02;;;;;;;0.20;0.20;;;18.10;99.90;;;;;;5061757;28;20040;-83
2022/07/02 08:00:28;;;;;;;0.20;0.10;;;18.10;99.90;;;;;;5096858;28;20039;-83
2022/07/02 08:02:55;;;;;;;0.20;0.20;;;18.20;99.90;;;;;;5087816;28;20040;-83
2022/07/02 08:05:22;;;;;;;0.10;0.10;;;18.30;99.90;;;;;;5075514;28;20127;-82
2022/07/02 08:07:48;;;;;;;0.10;0.10;;;18.50;99.90;;;;;;5074662;28;20418;-84
2022/07/02 08:10:16;;;;;;;0.00;0.00;;;18.60;99.90;;;;;;5074692;28;20045;-83
2022/07/02 08:12:42;;;;;;;0.03;0.03;;;18.70;99.90;;;;;;5091366;28;20051;-82
2022/07/02 08:15:10;;;;;;;0.10;0.10;;;18.80;99.90;;;;;;5058590;28;20040;-82
2022/07/02 08:17:37;;;;;;;0.05;0.05;;;18.80;99.90;;;;;;5057933;28;20094;-82
2022/07/02 08:20:05;;;;;;;0.10;0.10;;;18.90;99.90;;;;;;5074609;28;20036;-82
2022/07/02 08:22:33;;;;;;;0.00;0.00;;;19.10;99.90;;;;;;5074793;28;20127;-82
2022/07/02 08:25:00;;;;;;;0.13;0.13;;;19.10;99.90;;;;;;5058502;28;20134;-82
2022/07/02 08:27:27;;;;;;;0.00;0.00;;;19.20;99.90;;;;;;5091040;28;20051;-82
2022/07/02 08:29:54;;;;;;;0.20;0.20;;;19.20;99.90;;;;;;5058077;28;20424;-82
2022/07/02 08:32:22;;;;;;;0.75;0.30;;;19.30;99.90;;;;;;5057903;28;20036;-82
2022/07/02 08:34:49;;;;;;;0.00;0.00;;;19.40;99.90;;;;;;5074004;28;20379;-82
2022/07/02 08:37:15;;;;;;;0.00;0.00;;;19.40;99.90;;;;;;5074235;28;20078;-82
2022/07/02 08:39:42;;;;;;;0.10;0.10;;;19.50;99.90;;;;;;5057397;28;20044;-82
2022/07/02 08:42:09;;;;;;;0.20;0.20;;;19.60;99.90;;;;;;5073758;28;20041;-82
2022/07/02 08:44:38;;;;;;;0.10;0.10;;;19.60;99.90;;;;;;5057805;28;20047;-82
2022/07/02 08:47:08;;;;;;;0.13;0.10;;;19.80;99.90;;;;;;5074264;28;20044;-83
2022/07/02 08:49:37;;;;;;;0.10;0.10;;;19.90;99.90;;;;;;5090342;28;20090;-82
2022/07/02 08:52:07;;;;;;;0.20;0.13;;;20.00;99.90;;;;;;5073981;28;20033;-82
2022/07/02 08:54:35;;;;;;;0.17;0.17;;;20.10;99.90;;;;;;5074275;28;20032;-80
2022/07/02 08:57:03;;;;;;;0.10;0.10;;;20.20;99.90;;;;;;5057370;28;20051;-82
2022/07/02 08:59:31;;;;;;;0.10;0.10;;;20.10;99.90;;;;;;5089922;28;20044;-80
2022/07/02 09:01:59;;;;;;;0.10;0.10;;;20.10;99.90;;;;;;5090591;28;20488;-82
2022/07/02 09:04:26;;;;;;;0.52;0.35;;;20.10;99.90;;;;;;5057910;28;20041;-84
2022/07/02 09:06:58;;;;;;;0.08;0.08;;;20.20;99.90;;;;;;5073611;28;20043;-83
2022/07/02 09:09:26;;;;;;;0.10;0.10;;;20.20;99.90;;;;;;5088164;28;20129;-85
2022/07/02 09:11:54;;;;;;;0.00;0.00;;;20.30;99.90;;;;;;5093401;28;20086;-84
2022/07/02 09:14:21;;;;;;;0.10;0.10;;;20.30;99.90;;;;;;5093849;28;20035;-84
2022/07/02 09:16:48;;;;;;;0.10;0.10;;;20.30;99.20;;;;;;5094125;28;20086;-84
2022/07/02 09:19:17;;;;;;;0.25;0.10;;;20.40;99.90;;;;;;5127096;28;20775;-85
2022/07/02 09:21:52;;;;;;;0.05;0.05;;;20.50;99.90;;;;;;5077516;28;20044;-88
2022/07/02 09:24:32;;;;;;;;;;;20.50;99.90;;;;;;5094262;28;20480;-81
2022/07/02 09:27:04;;;;;;;0.00;0.00;;;20.50;98.90;;;;;;5076779;28;19920;-84
2022/07/02 09:29:46;;;;;;;0.10;0.10;;;20.50;99.20;;;;;;5095663;28;20505;-82
2022/07/02 09:32:13;;;;;;;0.20;0.10;;;20.70;99.90;;;;;;5109823;28;20165;-83
2022/07/02 09:34:43;;;;;;;0.00;0.00;;;20.90;99.90;;;;;;5071422;28;20036;-82
2022/07/02 09:37:18;;;;;;;0.10;0.08;;;21.00;99.90;;;;;;5084522;28;20042;-82
2022/07/02 09:39:46;;;;;;;0.00;0.00;;;21.10;99.90;;;;;;5072345;28;20059;-82
2022/07/02 09:42:28;;;;;;;0.00;0.00;;;21.20;98.60;;;;;;5076499;28;20040;-82
2022/07/02 09:44:55;;;;;;;0.10;0.10;;;21.40;99.90;;;;;;5086900;28;20044;-84
2022/07/02 09:47:48;;;;;;;0.10;0.10;;;21.50;98.50;;;;;;5076418;28;20912;-83
2022/07/02 09:50:17;;;;;;;0.10;0.10;;;21.60;99.10;;;;;;5056846;28;20062;-83
2022/07/02 09:52:50;;;;;;;0.10;0.10;;;21.60;97.00;;;;;;5071802;28;20040;-83
2022/07/02 09:55:25;;;;;;;0.13;0.13;;;21.60;97.50;;;;;;5072548;28;20397;-83
2022/07/02 09:57:58;;;;;;;0.10;0.10;;;21.80;96.90;;;;;;5092750;28;20535;-83
2022/07/02 10:00:26;;;;;;;0.13;0.10;;;21.80;97.00;;;;;;5064154;28;20131;-83
2022/07/02 10:02:55;;;;;;;0.00;0.00;;;21.80;97.50;;;;;;5057507;28;20053;-84
2022/07/02 10:05:24;;;;;;;0.00;0.00;;;21.80;98.30;;;;;;5106477;28;20071;-84
2022/07/02 10:07:56;;;;;;;0.10;0.10;;;21.90;97.00;;;;;;5085257;28;20033;-83
2022/07/02 10:10:38;;;;;;;0.00;0.00;;;21.90;97.20;;;;;;5074580;28;20037;-82
2022/07/02 10:13:06;;;;;;;0.00;0.00;;;21.90;96.20;;;;;;5092974;28;20039;-83
2022/07/02 10:15:37;;;;;;;0.20;0.20;;;21.80;93.60;;;;;;5062510;28;20032;-83
2022/07/02 10:18:05;;;;;;;0.00;0.00;;;21.80;95.60;;;;;;5064326;28;20113;-83
2022/07/02 10:20:33;;;;;;;0.10;0.10;;;21.70;95.20;;;;;;5074208;28;20047;-84
2022/07/02 10:23:02;;;;;;;0.20;0.20;;;21.60;96.00;;;;;;5056473;28;20036;-84
2022/07/02 10:25:31;;;;;;;0.10;0.10;;;21.50;93.90;;;;;;5076368;28;20037;-84
2022/07/02 10:27:58;;;;;;;0.20;0.17;;;21.70;95.90;;;;;;5076999;28;20048;-84
2022/07/02 10:30:32;;;;;;;0.00;0.00;;;21.90;96.40;;;;;;5056357;28;20045;-84
2022/07/02 10:33:21;;;;;;;0.17;0.10;;;21.90;94.50;;;;;;5072754;28;20041;-84
2022/07/02 10:35:50;;;;;;;0.10;0.10;;;22.00;94.40;;;;;;5073166;28;20559;-86
2022/07/02 10:38:28;;;;;;;0.03;0.03;;;22.10;94.40;;;;;;5057005;28;20078;-87
2022/07/02 10:40:54;;;;;;;0.13;0.13;;;22.30;94.50;;;;;;5074146;28;20486;-87
2022/07/02 10:43:22;;;;;;;0.10;0.10;;;22.50;95.00;;;;;;5090569;28;20039;-85
2022/07/02 10:45:49;;;;;;;0.40;0.20;;;22.60;94.30;;;;;;5107801;28;20028;-88
2022/07/02 10:48:15;;;;;;;0.00;0.00;;;22.70;93.10;;;;;;5058118;28;20401;-84
2022/07/02 10:50:45;;;;;;;0.17;0.17;;;22.70;92.60;;;;;;5092601;28;20033;-90
2022/07/02 10:53:22;;;;;;;0.10;0.10;;;22.60;92.50;;;;;;5082242;28;20047;-85
2022/07/02 10:55:58;;;;;;;0.10;0.10;;;22.40;93.10;;;;;;5062510;28;20033;-88
2022/07/02 10:58:28;;;;;;;0.00;0.00;;;22.40;92.70;;;;;;5090660;28;20440;-88
2022/07/02 11:00:55;;;;;;;0.10;0.10;;;22.30;93.20;;;;;;5109484;28;20267;-85
2022/07/02 11:03:26;;;;;;;0.82;0.15;;;22.20;94.20;;;;;;5092478;28;20036;-85
2022/07/02 11:06:06;;;;;;;0.00;0.00;;;22.10;93.10;;;;;;5082095;28;20087;-85
2022/07/02 11:08:46;;;;;;;0.00;0.00;;;22.20;93.40;;;;;;5079504;28;20030;-85
2022/07/02 11:11:33;;;;;;;0.10;0.10;;;22.20;93.80;;;;;;5088273;28;20044;-86
2022/07/02 11:14:01;;;;;;;0.03;0.03;;;21.90;92.80;;;;;;5078763;28;20033;-85
2022/07/02 11:16:40;;;;;;;0.20;0.10;;;21.70;93.30;;;;;;5059730;28;20058;-85
2022/07/02 11:19:26;;;;;;;0.00;0.00;;;21.50;92.80;;;;;;5063936;28;20105;-84
2022/07/02 11:21:58;;;;;;;0.25;0.20;;;21.40;93.50;;;;;;5075728;28;20040;-85
2022/07/02 11:24:30;;;;;;;0.00;0.00;;;21.40;94.60;;;;;;5075560;28;20084;-84
2022/07/02 11:26:58;;;;;;;0.00;0.00;;;21.60;94.10;;;;;;5063913;28;20044;-84
2022/07/02 11:29:25;;;;;;;0.00;0.00;;;21.90;95.00;;;;;;5059901;28;20056;-84
2022/07/02 11:31:55;;;;;;;0.30;0.20;;;22.30;94.70;;;;;;5059757;28;20037;-85
2022/07/02 11:34:24;;;;;;;0.20;0.20;;;22.50;94.80;;;;;;5075903;28;20458;-85
2022/07/02 11:36:51;;;;;;;0.10;0.08;;;22.40;93.80;;;;;;5075591;28;20075;-84
2022/07/02 11:39:20;;;;;;;0.10;0.10;;;22.10;91.90;;;;;;5059025;28;20452;-84
2022/07/02 11:41:49;;;;;;;0.10;0.10;;;22.20;95.10;;;;;;5074706;28;20043;-84
2022/07/02 11:44:25;;;;;;;0.00;0.00;;;22.30;93.80;;;;;;5092376;28;20128;-84
2022/07/02 11:46:57;;;;;;;0.10;0.10;;;22.40;93.50;;;;;;5074884;28;20055;-84
2022/07/02 11:49:31;;;;;;;0.10;0.10;;;22.40;95.00;;;;;;5059310;28;20048;-84
2022/07/02 11:51:58;;;;;;;0.00;0.00;;;22.60;94.50;;;;;;5091768;28;20552;-84
2022/07/02 11:54:26;;;;;;;0.10;0.10;;;22.90;94.10;;;;;;5075318;28;20135;-85
2022/07/02 11:56:53;;;;;;;0.10;0.10;;;22.90;92.90;;;;;;5088302;28;20037;-85
2022/07/02 11:59:22;;;;;;;0.00;0.00;;;23.10;93.40;;;;;;5084103;28;20035;-85
2022/07/02 12:01:50;;;;;;;0.30;0.20;;;23.10;93.30;;;;;;5093564;28;20044;-84
2022/07/02 12:04:19;;;;;;;0.20;0.20;;;23.00;93.00;;;;;;5083742;28;20040;-84
2022/07/02 12:06:53;;;;;;;0.20;0.13;;;22.90;92.50;;;;;;5075508;28;20421;-85
2022/07/02 12:09:22;;;;;;;0.10;0.10;;;22.80;93.10;;;;;;5107497;28;20123;-85
2022/07/02 12:11:50;;;;;;;0.10;0.10;;;22.80;93.30;;;;;;5094618;28;20036;-84
2022/07/02 12:14:24;;;;;;;0.10;0.10;;;22.80;94.10;;;;;;5059748;28;20036;-85
2022/07/02 12:16:52;;;;;;;0.10;0.10;;;22.70;95.60;;;;;;5093825;28;20051;-85
2022/07/02 12:19:19;;;;;;;0.08;0.08;;;22.70;93.30;;;;;;5095155;28;20528;-84
2022/07/02 12:21:48;;;;;;;0.10;0.10;;;22.70;94.60;;;;;;5056745;28;20037;-84
2022/07/02 12:24:19;;;;;;;0.20;0.20;;;22.80;94.80;;;;;;5107755;28;20079;-84
2022/07/02 12:26:48;;;;;;;0.10;0.10;;;23.00;94.10;;;;;;5074882;28;20056;-84
2022/07/02 12:32:06;;;;;;;0.10;0.10;;;23.30;93.90;;;;;;5090775;28;20052;-85
2022/07/02 12:34:53;;;;;;;0.10;0.10;;;23.50;93.30;;;;;;5074376;28;20037;-85
2022/07/02 12:37:32;;;;;;;0.10;0.10;;;23.80;94.00;;;;;;5076288;28;20041;-84
2022/07/02 12:40:15;;;;;;;0.10;0.10;;;23.70;92.80;;;;;;5080390;28;20175;-83
2022/07/02 12:42:55;;;;;;;0.77;0.20;;;23.50;92.00;;;;;;5067970;28;20060;-84
2022/07/02 12:45:32;;;;;;;0.10;0.10;;;23.30;92.10;;;;;;5074247;28;20095;-83
2022/07/02 12:48:00;;;;;;;0.20;0.20;;;23.40;93.10;;;;;;5073486;28;20127;-84
2022/07/02 12:50:36;;;;;;;0.17;0.17;;;23.70;92.50;;;;;;5090355;28;20054;-84
2022/07/02 12:53:30;;;;;;;0.20;0.13;;;23.90;92.00;;;;;;5076996;28;20508;-87
2022/07/02 12:55:58;;;;;;;0.10;0.10;;;23.90;93.50;;;;;;5074576;28;20048;-86
2022/07/02 12:58:25;;;;;;;0.20;0.20;;;23.70;92.50;;;;;;5072228;28;20037;-85
2022/07/02 13:00:52;;;;;;;0.35;0.30;;;23.80;92.60;;;;;;5057096;28;20075;-85
2022/07/02 13:03:21;;;;;;;0.20;0.20;;;24.10;92.30;;;;;;5123892;28;20048;-84
2022/07/02 13:05:54;;;;;;;0.13;0.13;;;24.20;93.80;;;;;;5073376;28;20041;-85
2022/07/02 13:08:22;;;;;;;0.20;0.20;;;24.40;94.60;;;;;;5090180;28;20123;-83